createdAt,value
2023-07-11T00:00:23.051Z,92909.78
2023-07-11T00:02:53.731Z,92905.78
2023-07-11T00:05:22.352Z,92908.69
2023-07-11T00:07:50.870Z,92911.75
2023-07-11T00:10:21.425Z,92893.81
2023-07-11T00:12:50.001Z,92898.59
2023-07-11T00:15:19.523Z,92905.25
2023-07-11T00:17:50.413Z,92903.50
2023-07-11T00:20:21.057Z,92899.09
2023-07-11T00:22:49.858Z,92902.81
2023-07-11T00:25:18.521Z,92900.00
2023-07-11T00:27:47.019Z,92893.94
2023-07-11T00:30:15.594Z,92895.13
2023-07-11T00:32:44.111Z,92903.22
2023-07-11T00:35:12.863Z,92893.59
2023-07-11T00:37:42.731Z,92887.91
2023-07-11T00:40:13.541Z,92885.19
2023-07-11T00:42:43.910Z,92890.94
2023-07-11T00:46:04.217Z,92881.03
2023-07-11T00:48:37.177Z,92889.31
2023-07-11T00:51:08.117Z,92886.53
2023-07-11T00:53:41.497Z,92888.69
2023-07-11T00:56:13.637Z,92883.16
2023-07-11T00:58:44.234Z,92885.19
2023-07-11T01:01:14.129Z,92884.19
2023-07-11T01:03:42.719Z,92881.47
2023-07-11T01:06:14.621Z,92878.34
2023-07-11T01:08:45.943Z,92874.47
2023-07-11T01:11:15.414Z,92869.78
2023-07-11T01:13:44.055Z,92874.16
2023-07-11T01:16:12.688Z,92873.72
2023-07-11T01:18:41.564Z,92865.09
2023-07-11T01:21:10.692Z,92866.38
2023-07-11T01:23:40.602Z,92858.13
2023-07-11T01:26:13.128Z,92860.94
2023-07-11T01:28:42.659Z,92849.94
2023-07-11T01:31:11.322Z,92855.13
2023-07-11T01:33:39.841Z,92854.28
2023-07-11T01:36:09.364Z,92852.31
2023-07-11T01:38:40.087Z,92851.44
2023-07-11T01:41:08.842Z,92856.03
2023-07-11T01:43:38.672Z,92848.56
2023-07-11T01:46:07.401Z,92848.34
2023-07-11T01:48:36.188Z,92842.59
2023-07-11T01:51:04.934Z,92845.84
2023-07-11T01:53:33.739Z,92846.25
2023-07-11T01:56:06.435Z,92834.16
2023-07-11T01:58:35.583Z,92834.72
2023-07-11T02:01:04.179Z,92833.59
2023-07-11T02:03:33.051Z,92830.25
2023-07-11T02:06:01.689Z,92820.97
2023-07-11T02:08:30.199Z,92825.50
2023-07-11T02:10:58.705Z,92820.84
2023-07-11T02:13:28.665Z,92823.22
2023-07-11T02:15:57.203Z,92819.38
2023-07-11T02:18:25.914Z,92818.44
2023-07-11T02:20:58.522Z,92811.38
2023-07-11T02:23:27.148Z,92813.88
2023-07-11T02:25:56.261Z,92816.41
2023-07-11T02:28:25.047Z,92812.22
2023-07-11T02:30:54.982Z,92818.97
2023-07-11T02:33:23.520Z,92810.91
2023-07-11T02:35:52.057Z,92811.44
2023-07-11T02:38:20.737Z,92814.53
2023-07-11T02:40:49.252Z,92809.28
2023-07-11T02:43:18.174Z,92801.94
2023-07-11T02:45:46.934Z,92805.59
2023-07-11T02:48:16.853Z,92803.81
2023-07-11T02:50:45.904Z,92798.41
2023-07-11T02:53:14.539Z,92800.97
2023-07-11T02:55:43.305Z,92796.25
2023-07-11T02:58:11.857Z,92800.19
2023-07-11T03:00:40.543Z,92792.16
2023-07-11T03:03:09.061Z,92803.84
2023-07-11T03:05:45.957Z,92785.66
2023-07-11T03:08:15.075Z,92780.09
2023-07-11T03:10:44.400Z,92788.16
2023-07-11T03:13:13.565Z,92783.13
2023-07-11T03:15:42.606Z,92785.25
2023-07-11T03:18:12.807Z,92777.78
2023-07-11T03:20:42.645Z,92775.03
2023-07-11T03:23:15.299Z,92788.94
2023-07-11T03:25:44.348Z,92787.28
2023-07-11T03:28:12.826Z,92774.50
2023-07-11T03:30:41.329Z,92772.00
2023-07-11T03:33:10.811Z,92783.16
2023-07-11T03:35:39.941Z,92763.38
2023-07-11T03:38:08.580Z,92778.03
2023-07-11T03:40:38.468Z,92779.66
2023-07-11T03:43:06.921Z,92763.09
2023-07-11T03:45:35.645Z,92756.25
2023-07-11T03:48:04.241Z,92766.28
2023-07-11T03:50:32.822Z,92762.16
2023-07-11T03:53:01.358Z,92764.00
2023-07-11T03:55:29.840Z,92760.91
2023-07-11T03:57:59.977Z,92759.53
2023-07-11T04:00:28.576Z,92757.41
2023-07-11T04:02:59.782Z,92757.94
2023-07-11T04:05:28.436Z,92760.19
2023-07-11T04:07:56.938Z,92752.97
2023-07-11T04:10:25.586Z,92755.06
2023-07-11T04:12:54.289Z,92743.34
2023-07-11T04:15:24.176Z,92754.41
2023-07-11T04:17:52.733Z,92753.94
2023-07-11T04:20:21.617Z,92756.78
2023-07-11T04:22:50.144Z,92749.97
2023-07-11T04:25:18.866Z,92745.88
2023-07-11T04:27:47.403Z,92746.25
2023-07-11T04:30:16.601Z,92749.63
2023-07-11T04:32:46.493Z,92755.47
2023-07-11T04:35:16.327Z,92749.28
2023-07-11T04:37:45.021Z,92759.69
2023-07-11T04:40:13.475Z,92753.88
2023-07-11T04:42:41.984Z,92746.31
2023-07-11T04:45:12.249Z,92749.22
2023-07-11T04:47:41.075Z,92743.50
2023-07-11T04:50:11.839Z,92746.75
2023-07-11T04:52:40.614Z,92747.66
2023-07-11T04:55:10.275Z,92744.59
2023-07-11T04:57:39.012Z,92746.13
2023-07-11T05:00:09.485Z,92742.88
2023-07-11T05:02:38.656Z,92741.63
2023-07-11T05:05:08.449Z,92738.41
2023-07-11T05:07:38.575Z,92733.72
2023-07-11T05:10:09.123Z,92737.72
2023-07-11T05:12:37.839Z,92728.78
2023-07-11T05:15:08.532Z,92722.53
2023-07-11T05:17:37.194Z,92727.22
2023-07-11T05:20:07.191Z,92724.03
2023-07-11T05:22:37.298Z,92728.97
2023-07-11T05:25:10.468Z,92722.78
2023-07-11T05:27:39.495Z,92724.84
2023-07-11T05:30:10.887Z,92719.25
2023-07-11T05:32:39.460Z,92725.56
2023-07-11T05:35:09.175Z,92713.59
2023-07-11T05:37:39.402Z,92714.91
2023-07-11T05:40:10.258Z,92715.59
2023-07-11T05:42:39.006Z,92717.75
2023-07-11T05:45:09.105Z,92712.22
2023-07-11T05:47:37.619Z,92712.16
2023-07-11T05:50:07.794Z,92714.91
2023-07-11T05:52:36.303Z,92706.75
2023-07-11T05:55:07.123Z,92706.25
2023-07-11T05:57:36.445Z,92706.66
2023-07-11T06:00:06.299Z,92696.03
2023-07-11T06:02:34.862Z,92690.56
2023-07-11T06:05:03.421Z,92691.50
2023-07-11T06:07:33.153Z,92685.13
2023-07-11T06:10:01.657Z,92686.97
2023-07-11T06:12:31.577Z,92681.16
2023-07-11T06:15:00.070Z,92689.50
2023-07-11T06:17:28.681Z,92691.53
2023-07-11T06:19:57.516Z,92681.47
2023-07-11T06:22:26.112Z,92681.16
2023-07-11T06:24:54.629Z,92680.06
2023-07-11T06:27:23.117Z,92683.16
2023-07-11T06:29:53.629Z,92679.22
2023-07-11T06:32:22.229Z,92684.34
2023-07-11T06:34:50.887Z,92671.28
2023-07-11T06:37:19.393Z,92671.88
2023-07-11T06:39:48.313Z,92672.09
2023-07-11T06:42:17.247Z,92675.00
2023-07-11T06:44:45.984Z,92670.41
2023-07-11T06:47:16.148Z,92671.41
2023-07-11T06:49:45.559Z,92674.34
2023-07-11T06:52:14.154Z,92663.72
2023-07-11T06:54:42.919Z,92670.38
2023-07-11T06:57:11.463Z,92674.22
2023-07-11T06:59:39.971Z,92677.28
2023-07-11T07:02:09.792Z,92673.88
2023-07-11T07:04:39.775Z,92675.09
2023-07-11T07:07:08.353Z,92667.00
2023-07-11T07:09:37.020Z,92664.94
2023-07-11T07:12:07.215Z,92672.09
2023-07-11T07:14:35.751Z,92669.81
2023-07-11T07:17:04.735Z,92661.63
2023-07-11T07:19:33.247Z,92658.19
2023-07-11T07:22:03.540Z,92656.09
2023-07-11T07:24:32.053Z,92660.34
2023-07-11T07:27:00.793Z,92653.19
2023-07-11T07:29:29.288Z,92652.34
2023-07-11T07:31:57.988Z,92644.28
2023-07-11T07:34:28.030Z,92656.25
2023-07-11T07:36:59.195Z,92650.16
2023-07-11T07:39:29.079Z,92649.59
2023-07-11T07:41:57.884Z,92653.88
2023-07-11T07:44:26.392Z,92645.94
2023-07-11T07:46:54.998Z,92645.44
2023-07-11T07:49:23.910Z,92647.34
2023-07-11T07:51:54.740Z,92644.94
2023-07-11T07:54:23.477Z,92654.31
2023-07-11T07:56:53.332Z,92646.91
2023-07-11T07:59:21.862Z,92647.34
2023-07-11T08:01:50.496Z,92638.41
2023-07-11T08:04:19.217Z,92641.13
2023-07-11T08:06:48.782Z,92630.66
2023-07-11T08:09:20.012Z,92631.50
2023-07-11T08:11:48.536Z,92632.50
2023-07-11T08:14:18.667Z,92635.13
2023-07-11T08:16:47.251Z,92629.63
2023-07-11T08:19:15.813Z,92624.41
2023-07-11T08:21:44.499Z,92631.16
2023-07-11T08:24:14.203Z,92620.50
2023-07-11T08:26:44.098Z,92621.31
2023-07-11T08:29:28.021Z,92611.44
2023-07-11T08:31:59.942Z,92609.19
2023-07-11T08:34:28.495Z,92611.72
2023-07-11T08:36:57.007Z,92611.16
2023-07-11T08:39:25.516Z,92612.44
2023-07-11T08:41:56.678Z,92605.59
2023-07-11T08:44:33.865Z,92599.97
2023-07-11T08:47:09.306Z,92592.84
2023-07-11T08:49:45.526Z,92588.13
2023-07-11T08:52:16.389Z,92596.34
2023-07-11T08:54:57.300Z,92589.91
2023-07-11T08:57:30.763Z,92591.09
2023-07-11T09:00:06.974Z,92584.50
2023-07-11T09:02:48.096Z,92579.28
2023-07-11T09:05:22.032Z,92576.13
2023-07-11T09:07:54.570Z,92579.28
2023-07-11T09:10:48.874Z,92580.28
2023-07-11T09:13:49.700Z,92580.78
2023-07-11T09:16:33.033Z,92576.91
2023-07-11T09:19:16.853Z,92566.72
2023-07-11T09:21:54.816Z,92579.31
2023-07-11T09:24:33.440Z,92573.03
2023-07-11T09:27:08.136Z,92568.09
2023-07-11T09:29:37.903Z,92568.88
2023-07-11T09:32:10.694Z,92569.00
2023-07-11T09:34:45.353Z,92567.06
2023-07-11T09:37:25.933Z,92563.56
2023-07-11T09:40:01.090Z,92571.63
2023-07-11T09:42:43.249Z,92564.81
2023-07-11T09:45:15.363Z,92566.88
2023-07-11T09:47:49.808Z,92562.78
2023-07-11T09:50:46.567Z,92558.75
2023-07-11T09:53:21.072Z,92561.31
2023-07-11T09:56:10.577Z,92549.44
2023-07-11T09:58:40.490Z,92551.84
2023-07-11T10:01:19.478Z,92546.72
2023-07-11T10:03:49.832Z,92538.88
2023-07-11T10:09:19.230Z,92547.31
2023-07-11T10:11:56.325Z,92528.88
2023-07-11T10:14:31.001Z,92541.41
2023-07-11T10:17:00.507Z,92542.47
2023-07-11T10:19:32.784Z,92536.94
2023-07-11T10:22:03.915Z,92538.31
2023-07-11T10:24:39.879Z,92532.19
2023-07-11T10:27:15.220Z,92532.41
2023-07-11T10:29:49.440Z,92533.69
2023-07-11T10:32:28.443Z,92533.31
2023-07-11T10:35:00.370Z,92529.91
2023-07-11T10:37:40.837Z,92528.75
2023-07-11T10:40:19.380Z,92519.63
2023-07-11T10:42:59.061Z,92514.19
2023-07-11T10:45:30.099Z,92512.88
2023-07-11T10:48:06.887Z,92518.34
2023-07-11T10:50:41.829Z,92512.72
2023-07-11T10:53:24.097Z,92510.16
2023-07-11T10:56:03.078Z,92516.25
2023-07-11T10:58:31.826Z,92513.22
2023-07-11T11:01:15.000Z,92509.53
2023-07-11T11:03:47.311Z,92510.09
2023-07-11T11:06:34.053Z,92495.94
2023-07-11T11:09:13.852Z,92512.47
2023-07-11T11:11:57.534Z,92496.94
2023-07-11T11:14:35.368Z,92484.81
2023-07-11T11:17:25.446Z,92487.97
2023-07-11T11:20:10.476Z,92476.88
2023-07-11T11:22:56.269Z,92484.22
2023-07-11T11:25:31.934Z,92484.16
2023-07-11T11:28:16.238Z,92481.81
2023-07-11T11:30:56.184Z,92472.00
2023-07-11T11:33:47.214Z,92475.81
2023-07-11T11:36:26.381Z,92474.00
2023-07-11T11:39:14.968Z,92470.06
2023-07-11T11:41:47.817Z,92470.47
2023-07-11T11:46:55.377Z,92477.75
2023-07-11T11:51:58.695Z,92470.19
2023-07-11T11:54:27.686Z,92469.38
2023-07-11T11:57:00.628Z,92475.75
2023-07-11T11:59:30.572Z,92457.47
2023-07-11T12:02:05.782Z,92474.47
2023-07-11T12:05:00.893Z,92451.38
2023-07-11T12:07:45.051Z,92446.13
2023-07-11T12:10:23.342Z,92459.84
2023-07-11T12:13:08.704Z,92452.88
2023-07-11T12:15:41.089Z,92443.97
2023-07-11T12:18:42.729Z,92438.94
2023-07-11T12:21:37.147Z,92434.84
2023-07-11T12:27:00.350Z,92431.50
2023-07-11T12:29:42.059Z,92428.09
2023-07-11T12:32:43.245Z,92431.41
2023-07-11T12:35:20.381Z,92440.13
2023-07-11T12:38:08.551Z,92426.16
2023-07-11T12:40:43.893Z,92431.22
2023-07-11T12:43:20.824Z,92415.41
2023-07-11T12:45:56.228Z,92408.94
2023-07-11T12:48:28.741Z,92423.88
2023-07-11T12:51:00.487Z,92421.44
2023-07-11T12:53:30.286Z,92437.81
2023-07-11T12:55:58.953Z,92416.59
2023-07-11T12:58:30.437Z,92414.84
2023-07-11T13:01:01.796Z,92410.78
2023-07-11T13:03:34.259Z,92402.47
2023-07-11T13:06:21.151Z,92409.44
2023-07-11T13:08:52.329Z,92411.28
2023-07-11T13:11:24.388Z,92398.28
2023-07-11T13:13:54.621Z,92428.44
2023-07-11T13:16:31.663Z,92407.31
2023-07-11T13:19:03.447Z,92415.25
2023-07-11T13:21:32.274Z,92405.38
2023-07-11T13:24:01.783Z,92398.97
2023-07-11T13:26:31.298Z,92403.56
2023-07-11T13:29:07.427Z,92422.56
2023-07-11T13:31:39.954Z,92395.16
2023-07-11T13:34:14.851Z,92391.13
2023-07-11T13:36:48.209Z,92391.59
2023-07-11T13:39:22.019Z,92389.34
2023-07-11T13:41:55.700Z,92385.09
2023-07-11T13:44:31.260Z,92381.00
2023-07-11T13:47:03.170Z,92396.19
2023-07-11T13:49:38.840Z,92387.34
2023-07-11T13:52:21.049Z,92385.34
2023-07-11T13:54:55.474Z,92392.94
2023-07-11T13:57:24.490Z,92394.63
2023-07-11T14:00:07.481Z,92376.09
2023-07-11T14:02:44.414Z,92373.59
2023-07-11T14:05:24.013Z,92383.78
2023-07-11T14:07:55.837Z,92374.88
2023-07-11T14:10:27.232Z,92382.91
2023-07-11T14:12:56.573Z,92376.75
2023-07-11T14:15:27.661Z,92377.44
2023-07-11T14:18:00.004Z,92375.91
2023-07-11T14:20:30.322Z,92366.25
2023-07-11T14:22:59.307Z,92379.16
2023-07-11T14:25:30.184Z,92365.50
2023-07-11T14:27:59.104Z,92365.56
2023-07-11T14:30:29.252Z,92351.09
2023-07-11T14:32:59.210Z,92340.75
2023-07-11T14:35:29.428Z,92350.97
2023-07-11T14:37:58.134Z,92336.38
2023-07-11T14:40:29.730Z,92341.84
2023-07-11T14:42:58.405Z,92344.16
2023-07-11T14:45:28.960Z,92346.03
2023-07-11T14:47:58.907Z,92356.66
2023-07-11T14:50:29.753Z,92358.69
2023-07-11T14:53:05.411Z,92351.72
2023-07-11T14:58:09.818Z,92344.41
2023-07-11T15:00:38.720Z,92333.09
2023-07-11T15:03:22.947Z,92322.47
2023-07-11T15:06:01.165Z,92324.47
2023-07-11T15:16:29.361Z,92307.22
2023-07-11T15:18:59.303Z,92302.00
2023-07-11T15:21:28.013Z,92301.78
2023-07-11T15:23:59.356Z,92295.75
2023-07-11T15:26:27.847Z,92300.94
2023-07-11T15:28:56.527Z,92285.94
2023-07-11T15:31:25.036Z,92292.13
2023-07-11T15:33:53.591Z,92282.09
2023-07-11T15:36:23.521Z,92280.16
2023-07-11T15:38:52.672Z,92267.91
2023-07-11T15:41:21.505Z,92257.59
2023-07-11T15:43:50.032Z,92260.50
2023-07-11T15:46:22.964Z,92253.94
2023-07-11T15:48:54.282Z,92248.75
2023-07-11T15:51:24.524Z,92249.94
2023-07-11T15:53:53.698Z,92241.56
2023-07-11T15:56:22.323Z,92248.13
2023-07-11T15:58:50.916Z,92236.47
2023-07-11T16:01:19.520Z,92237.03
2023-07-11T16:03:48.269Z,92241.19
2023-07-11T16:06:19.196Z,92233.84
2023-07-11T16:08:49.196Z,92240.78
2023-07-11T16:11:18.589Z,92242.00
2023-07-11T16:13:47.601Z,92235.34
2023-07-11T16:16:20.923Z,92225.88
2023-07-11T16:18:49.600Z,92228.72
2023-07-11T16:21:18.811Z,92228.44
2023-07-11T16:23:48.731Z,92218.69
2023-07-11T16:26:25.832Z,92220.19
2023-07-11T16:28:54.725Z,92210.88
2023-07-11T16:31:26.563Z,92187.63
2023-07-11T16:33:55.652Z,92190.72
2023-07-11T16:36:24.592Z,92174.38
2023-07-11T16:38:54.455Z,92177.00
2023-07-11T16:41:23.498Z,92175.03
2023-07-11T16:43:53.999Z,92168.19
2023-07-11T16:46:22.665Z,92163.66
2023-07-11T16:48:51.237Z,92154.16
2023-07-11T16:51:26.217Z,92156.09
2023-07-11T16:53:56.587Z,92143.25
2023-07-11T16:56:25.087Z,92139.78
2023-07-11T16:58:53.609Z,92128.56
2023-07-11T17:01:22.944Z,92118.19
2023-07-11T17:03:51.793Z,92095.25
2023-07-11T17:06:27.261Z,92096.50
2023-07-11T17:08:58.771Z,92082.06
2023-07-11T17:11:27.753Z,92069.44
2023-07-11T17:13:56.654Z,92058.63
2023-07-11T17:16:32.080Z,92044.38
2023-07-11T17:19:02.613Z,92038.38
2023-07-11T17:21:31.608Z,92030.91
2023-07-11T17:24:02.013Z,92022.63
2023-07-11T17:26:30.846Z,92004.31
2023-07-11T17:29:01.156Z,92011.56
2023-07-11T17:31:31.535Z,91995.69
2023-07-11T17:34:00.592Z,91999.16
2023-07-11T17:36:29.329Z,91999.44
2023-07-11T17:38:58.535Z,92013.59
2023-07-11T17:41:29.090Z,92019.53
2023-07-11T17:44:04.975Z,92009.00
2023-07-11T17:49:07.304Z,91998.25
2023-07-11T17:51:36.312Z,91996.19
2023-07-11T17:54:05.565Z,91995.25
2023-07-11T17:56:52.211Z,91985.09
2023-07-11T17:59:25.666Z,91984.44
2023-07-11T18:01:54.411Z,91991.75
2023-07-11T18:04:23.073Z,91984.78
2023-07-11T18:06:51.673Z,91993.34
2023-07-11T18:09:20.246Z,91990.56
2023-07-11T18:11:50.155Z,91986.81
2023-07-11T18:14:18.781Z,91982.06
2023-07-11T18:16:47.341Z,91976.28
2023-07-11T18:19:15.816Z,91973.75
2023-07-11T18:21:44.320Z,91953.38
2023-07-11T18:24:12.866Z,91933.75
2023-07-11T18:26:42.327Z,91924.22
2023-07-11T18:29:12.821Z,91907.59
2023-07-11T18:31:41.393Z,91873.41
2023-07-11T18:34:10.186Z,91860.28
2023-07-11T18:36:38.708Z,91865.81
2023-07-11T18:39:07.280Z,91884.88
2023-07-11T18:41:36.025Z,91902.72
2023-07-11T18:44:04.524Z,91892.19
2023-07-11T18:46:34.479Z,91887.88
2023-07-11T18:49:03.060Z,91878.38
2023-07-11T18:51:31.587Z,91893.94
2023-07-11T18:54:00.091Z,91896.19
2023-07-11T18:56:29.003Z,91896.91
2023-07-11T18:58:57.539Z,91893.34
2023-07-11T19:01:26.310Z,91878.97
2023-07-11T19:03:56.211Z,91885.69
2023-07-11T19:06:24.754Z,91876.38
2023-07-11T19:08:53.263Z,91872.84
2023-07-11T19:11:21.999Z,91872.09
2023-07-11T19:13:50.486Z,91874.69
2023-07-11T19:16:22.676Z,91885.16
2023-07-11T19:18:51.604Z,91889.41
2023-07-11T19:21:21.662Z,91912.53
2023-07-11T19:23:50.283Z,91936.22
2023-07-11T19:26:20.826Z,91949.16
2023-07-11T19:28:49.318Z,91994.59
2023-07-11T19:31:18.965Z,92086.13
2023-07-11T19:33:47.505Z,92209.25
2023-07-11T19:36:19.007Z,92441.94
2023-07-11T19:38:48.900Z,92615.63
2023-07-11T19:41:20.762Z,92574.38
2023-07-11T19:43:50.191Z,92599.81
2023-07-11T19:46:22.463Z,92515.81
2023-07-11T19:48:51.912Z,92492.97
2023-07-11T19:51:20.721Z,92476.34
2023-07-11T19:53:50.586Z,92443.31
2023-07-11T19:56:23.786Z,92448.72
2023-07-11T19:58:52.905Z,92447.63
2023-07-11T20:01:21.564Z,92448.81
2023-07-11T20:03:52.380Z,92463.09
2023-07-11T20:06:24.330Z,92461.34
2023-07-11T20:08:54.395Z,92463.88
2023-07-11T20:11:22.986Z,92450.97
2023-07-11T20:13:51.813Z,92445.66
2023-07-11T20:16:23.809Z,92428.84
2023-07-11T20:18:53.091Z,92454.47
2023-07-11T20:21:24.282Z,92458.03
2023-07-11T20:23:56.970Z,92458.72
2023-07-11T20:26:28.058Z,92455.84
2023-07-11T20:28:58.980Z,92435.59
2023-07-11T20:31:28.610Z,92438.19
2023-07-11T20:33:57.451Z,92429.41
2023-07-11T20:36:28.382Z,92422.88
2023-07-11T20:38:59.585Z,92404.91
2023-07-11T20:41:28.683Z,92394.31
2023-07-11T20:44:00.893Z,92385.25
2023-07-11T20:46:30.268Z,92381.09
2023-07-11T20:49:01.703Z,92370.59
2023-07-11T20:51:30.892Z,92375.63
2023-07-11T20:54:00.979Z,92359.16
2023-07-11T20:56:30.551Z,92361.69
2023-07-11T20:58:59.846Z,92358.56
2023-07-11T21:01:28.541Z,92356.22
2023-07-11T21:03:57.349Z,92376.22
2023-07-11T21:06:32.178Z,92385.25
2023-07-11T21:09:03.290Z,92391.97
2023-07-11T21:11:32.210Z,92410.75
2023-07-11T21:14:01.240Z,92429.47
2023-07-11T21:16:34.964Z,92441.00
2023-07-11T21:19:05.238Z,92454.63
2023-07-11T21:21:35.106Z,92449.53
2023-07-11T21:24:05.673Z,92430.31
2023-07-11T21:26:36.029Z,92397.97
2023-07-11T21:29:08.190Z,92351.63
2023-07-11T21:31:37.515Z,92319.78
2023-07-11T21:34:06.835Z,92292.72
2023-07-11T21:36:36.772Z,92316.19
2023-07-11T21:39:07.942Z,92338.81
2023-07-11T21:41:37.045Z,92355.81
2023-07-11T21:44:05.894Z,92379.44
2023-07-11T21:46:36.970Z,92374.19
2023-07-11T21:49:05.517Z,92374.09
2023-07-11T21:51:34.270Z,92356.00
2023-07-11T21:54:04.307Z,92325.84
2023-07-11T21:56:34.401Z,92319.47
2023-07-11T21:59:03.303Z,92320.41
2023-07-11T22:01:32.111Z,92320.13
2023-07-11T22:04:01.931Z,92307.56
2023-07-11T22:06:32.112Z,92306.25
2023-07-11T22:09:00.924Z,92300.47
2023-07-11T22:11:29.972Z,92296.88
2023-07-11T22:13:59.930Z,92287.38
2023-07-11T22:16:31.079Z,92284.31
2023-07-11T22:19:00.090Z,92269.59
2023-07-11T22:21:29.136Z,92272.53
2023-07-11T22:24:00.388Z,92280.06
2023-07-11T22:26:32.071Z,92278.94
2023-07-11T22:29:03.354Z,92264.19
2023-07-11T22:31:32.371Z,92264.34
2023-07-11T22:34:01.024Z,92266.69
2023-07-11T22:36:29.607Z,92291.56
2023-07-11T22:38:58.160Z,92315.63
2023-07-11T22:41:26.734Z,92306.78
2023-07-11T22:43:55.312Z,92316.31
2023-07-11T22:46:25.504Z,92330.19
2023-07-11T22:48:54.259Z,92335.75
2023-07-11T22:51:22.785Z,92322.84
2023-07-11T22:53:51.288Z,92320.34
2023-07-11T22:56:22.613Z,92315.31
2023-07-11T22:58:52.839Z,92316.00
2023-07-11T23:01:24.666Z,92308.47
2023-07-11T23:03:53.287Z,92315.56
2023-07-11T23:06:25.721Z,92318.44
2023-07-11T23:08:55.273Z,92321.72
2023-07-11T23:11:26.044Z,92320.16
2023-07-11T23:13:54.722Z,92340.38
2023-07-11T23:16:29.794Z,92332.31
2023-07-11T23:19:01.042Z,92329.69
2023-07-11T23:21:30.551Z,92337.09
2023-07-11T23:23:59.589Z,92354.84
2023-07-11T23:26:29.943Z,92342.16
2023-07-11T23:28:58.779Z,92323.13
2023-07-11T23:31:28.673Z,92319.50
2023-07-11T23:33:57.258Z,92321.31
2023-07-11T23:36:27.743Z,92338.19
2023-07-11T23:38:57.695Z,92352.56
2023-07-11T23:41:26.652Z,92375.28
2023-07-11T23:43:55.230Z,92350.44
2023-07-11T23:46:29.622Z,92337.78
2023-07-11T23:48:59.154Z,92325.47
2023-07-11T23:51:30.766Z,92326.16
2023-07-11T23:53:59.338Z,92362.72
2023-07-11T23:56:30.722Z,92390.06
2023-07-11T23:59:00.460Z,92380.66
